sensor_id;sensor_type;location;lat;lon;timestamp;temperature;humidity
39019;DHT22;24786;51.984;5.872;2022-11-20T00:01:11;-1.40;99.90
39019;DHT22;24786;51.984;5.872;2022-11-20T00:03:37;-1.40;99.90
39019;DHT22;24786;51.984;5.872;2022-11-20T00:06:04;-1.40;99.90
39019;DHT22;24786;51.984;5.872;2022-11-20T00:08:30;-1.40;99.90
39019;DHT22;24786;51.984;5.872;2022-11-20T00:10:56;-1.40;99.90
39019;DHT22;24786;51.984;5.872;2022-11-20T00:13:21;-1.50;99.90
39019;DHT22;24786;51.984;5.872;2022-11-20T00:15:47;-1.50;99.90
39019;DHT22;24786;51.984;5.872;2022-11-20T00:18:12;-1.50;99.90
39019;DHT22;24786;51.984;5.872;2022-11-20T00:20:38;-1.50;99.90
39019;DHT22;24786;51.984;5.872;2022-11-20T00:23:04;-1.50;99.90
39019;DHT22;24786;51.984;5.872;2022-11-20T00:25:31;-1.50;99.90
39019;DHT22;24786;51.984;5.872;2022-11-20T00:27:56;-1.40;99.90
39019;DHT22;24786;51.984;5.872;2022-11-20T00:30:22;-1.40;99.90
39019;DHT22;24786;51.984;5.872;2022-11-20T00:32:47;-1.40;99.90
39019;DHT22;24786;51.984;5.872;2022-11-20T00:35:13;-1.40;99.90
39019;DHT22;24786;51.984;5.872;2022-11-20T00:37:38;-1.50;99.90
39019;DHT22;24786;51.984;5.872;2022-11-20T00:40:04;-1.50;99.90
39019;DHT22;24786;51.984;5.872;2022-11-20T00:42:30;-1.50;99.90
39019;DHT22;24786;51.984;5.872;2022-11-20T00:44:58;-1.50;99.90
39019;DHT22;24786;51.984;5.872;2022-11-20T00:47:23;-1.50;99.90
39019;DHT22;24786;51.984;5.872;2022-11-20T00:49:49;-1.50;99.90
39019;DHT22;24786;51.984;5.872;2022-11-20T00:52:14;-1.50;99.90
39019;DHT22;24786;51.984;5.872;2022-11-20T00:54:40;-1.50;99.90
39019;DHT22;24786;51.984;5.872;2022-11-20T00:57:05;-1.50;99.90
39019;DHT22;24786;51.984;5.872;2022-11-20T00:59:31;-1.50;99.90
39019;DHT22;24786;51.984;5.872;2022-11-20T01:01:56;-1.50;99.90
39019;DHT22;24786;51.984;5.872;2022-11-20T01:04:22;-1.50;99.90
39019;DHT22;24786;51.984;5.872;2022-11-20T01:06:47;-1.60;99.90
39019;DHT22;24786;51.984;5.872;2022-11-20T01:09:14;-1.50;99.90
39019;DHT22;24786;51.984;5.872;2022-11-20T01:11:42;-1.50;99.90
39019;DHT22;24786;51.984;5.872;2022-11-20T01:14:11;-1.60;99.90
39019;DHT22;24786;51.984;5.872;2022-11-20T01:16:40;-1.60;99.90
39019;DHT22;24786;51.984;5.872;2022-11-20T01:19:11;-1.60;99.90
39019;DHT22;24786;51.984;5.872;2022-11-20T01:21:39;-1.60;99.90
39019;DHT22;24786;51.984;5.872;2022-11-20T01:24:06;-1.60;99.90
39019;DHT22;24786;51.984;5.872;2022-11-20T01:26:35;-1.60;99.90
39019;DHT22;24786;51.984;5.872;2022-11-20T01:29:02;-1.70;99.90
39019;DHT22;24786;51.984;5.872;2022-11-20T01:31:30;-1.70;99.90
39019;DHT22;24786;51.984;5.872;2022-11-20T01:33:59;-1.70;99.90
39019;DHT22;24786;51.984;5.872;2022-11-20T01:36:27;-1.80;99.90
39019;DHT22;24786;51.984;5.872;2022-11-20T01:38:54;-1.80;99.90
39019;DHT22;24786;51.984;5.872;2022-11-20T01:41:21;-1.80;99.90
39019;DHT22;24786;51.984;5.872;2022-11-20T01:44:05;-1.80;99.90
39019;DHT22;24786;51.984;5.872;2022-11-20T01:46:36;-1.80;99.90
39019;DHT22;24786;51.984;5.872;2022-11-20T01:49:05;-1.80;99.90
39019;DHT22;24786;51.984;5.872;2022-11-20T01:51:39;-1.80;99.90
39019;DHT22;24786;51.984;5.872;2022-11-20T01:54:18;-1.80;99.90
39019;DHT22;24786;51.984;5.872;2022-11-20T01:56:45;-1.80;99.90
39019;DHT22;24786;51.984;5.872;2022-11-20T01:59:16;-1.80;99.90
39019;DHT22;24786;51.984;5.872;2022-11-20T02:01:43;-1.80;99.90
39019;DHT22;24786;51.984;5.872;2022-11-20T02:04:08;-1.80;99.90
39019;DHT22;24786;51.984;5.872;2022-11-20T02:06:40;-1.80;99.90
39019;DHT22;24786;51.984;5.872;2022-11-20T02:09:08;-1.80;99.90
39019;DHT22;24786;51.984;5.872;2022-11-20T02:11:33;-1.90;99.90
39019;DHT22;24786;51.984;5.872;2022-11-20T02:13:59;-2.00;99.90
39019;DHT22;24786;51.984;5.872;2022-11-20T02:16:37;-2.10;99.90
39019;DHT22;24786;51.984;5.872;2022-11-20T02:19:09;-2.10;99.90
39019;DHT22;24786;51.984;5.872;2022-11-20T02:21:46;-2.20;99.90
39019;DHT22;24786;51.984;5.872;2022-11-20T02:24:18;-2.20;99.90
39019;DHT22;24786;51.984;5.872;2022-11-20T02:26:56;-2.20;99.90
39019;DHT22;24786;51.984;5.872;2022-11-20T02:29:37;-2.30;99.90
39019;DHT22;24786;51.984;5.872;2022-11-20T02:32:03;-2.30;99.90
39019;DHT22;24786;51.984;5.872;2022-11-20T02:34:29;-2.30;99.90
39019;DHT22;24786;51.984;5.872;2022-11-20T02:36:56;-2.30;99.90
39019;DHT22;24786;51.984;5.872;2022-11-20T02:39:25;-2.30;99.90
39019;DHT22;24786;51.984;5.872;2022-11-20T02:41:52;-2.20;99.90
39019;DHT22;24786;51.984;5.872;2022-11-20T02:44:18;-2.20;99.90
39019;DHT22;24786;51.984;5.872;2022-11-20T02:46:43;-2.20;99.90
39019;DHT22;24786;51.984;5.872;2022-11-20T02:49:09;-2.20;99.90
39019;DHT22;24786;51.984;5.872;2022-11-20T02:51:34;-2.20;99.90
39019;DHT22;24786;51.984;5.872;2022-11-20T02:54:00;-2.20;99.90
39019;DHT22;24786;51.984;5.872;2022-11-20T02:56:25;-2.20;99.90
39019;DHT22;24786;51.984;5.872;2022-11-20T02:58:51;-2.30;99.90
39019;DHT22;24786;51.984;5.872;2022-11-20T03:01:17;-2.30;99.90
39019;DHT22;24786;51.984;5.872;2022-11-20T03:03:42;-2.30;99.90
39019;DHT22;24786;51.984;5.872;2022-11-20T03:06:08;-2.30;99.90
39019;DHT22;24786;51.984;5.872;2022-11-20T03:08:34;-2.30;99.90
39019;DHT22;24786;51.984;5.872;2022-11-20T03:11:05;-2.30;99.90
39019;DHT22;24786;51.984;5.872;2022-11-20T03:13:31;-2.30;99.90
39019;DHT22;24786;51.984;5.872;2022-11-20T03:15:57;-2.30;99.90
39019;DHT22;24786;51.984;5.872;2022-11-20T03:18:22;-2.30;99.90
39019;DHT22;24786;51.984;5.872;2022-11-20T03:20:48;-2.20;99.90
39019;DHT22;24786;51.984;5.872;2022-11-20T03:23:13;-2.30;99.90
39019;DHT22;24786;51.984;5.872;2022-11-20T03:25:39;-2.20;99.90
39019;DHT22;24786;51.984;5.872;2022-11-20T03:28:05;-2.20;99.90
39019;DHT22;24786;51.984;5.872;2022-11-20T03:30:30;-2.20;99.90
39019;DHT22;24786;51.984;5.872;2022-11-20T03:32:56;-2.20;99.90
39019;DHT22;24786;51.984;5.872;2022-11-20T03:35:21;-2.20;99.90
39019;DHT22;24786;51.984;5.872;2022-11-20T03:37:47;-2.30;99.90
39019;DHT22;24786;51.984;5.872;2022-11-20T03:40:13;-2.30;99.90
39019;DHT22;24786;51.984;5.872;2022-11-20T03:42:39;-2.40;99.90
39019;DHT22;24786;51.984;5.872;2022-11-20T03:45:10;-2.40;99.90
39019;DHT22;24786;51.984;5.872;2022-11-20T03:47:36;-2.40;99.90
39019;DHT22;24786;51.984;5.872;2022-11-20T03:50:02;-2.50;99.90
39019;DHT22;24786;51.984;5.872;2022-11-20T03:52:28;-2.50;99.90
39019;DHT22;24786;51.984;5.872;2022-11-20T03:54:54;-2.50;99.90
39019;DHT22;24786;51.984;5.872;2022-11-20T03:57:19;-2.60;99.90
39019;DHT22;24786;51.984;5.872;2022-11-20T03:59:45;-2.60;99.90
39019;DHT22;24786;51.984;5.872;2022-11-20T04:02:10;-2.60;99.90
39019;DHT22;24786;51.984;5.872;2022-11-20T04:04:36;-2.70;99.90
39019;DHT22;24786;51.984;5.872;2022-11-20T04:07:02;-2.70;99.90
39019;DHT22;24786;51.984;5.872;2022-11-20T04:09:28;-2.80;99.90
39019;DHT22;24786;51.984;5.872;2022-11-20T04:11:53;-2.80;99.90
39019;DHT22;24786;51.984;5.872;2022-11-20T04:14:19;-2.70;99.90
39019;DHT22;24786;51.984;5.872;2022-11-20T04:16:45;-2.70;99.90
39019;DHT22;24786;51.984;5.872;2022-11-20T04:19:13;-2.60;99.90
39019;DHT22;24786;51.984;5.872;2022-11-20T04:21:39;-2.60;99.90
39019;DHT22;24786;51.984;5.872;2022-11-20T04:24:05;-2.60;99.90
39019;DHT22;24786;51.984;5.872;2022-11-20T04:26:31;-2.70;99.90
39019;DHT22;24786;51.984;5.872;2022-11-20T04:28:57;-2.60;99.90
39019;DHT22;24786;51.984;5.872;2022-11-20T04:31:28;-2.60;99.90
39019;DHT22;24786;51.984;5.872;2022-11-20T04:33:54;-2.60;99.90
39019;DHT22;24786;51.984;5.872;2022-11-20T04:36:25;-2.60;99.90
39019;DHT22;24786;51.984;5.872;2022-11-20T04:38:55;-2.60;99.90
39019;DHT22;24786;51.984;5.872;2022-11-20T04:41:23;-2.60;99.90
39019;DHT22;24786;51.984;5.872;2022-11-20T04:43:51;-2.70;99.90
39019;DHT22;24786;51.984;5.872;2022-11-20T04:46:18;-2.70;99.90
39019;DHT22;24786;51.984;5.872;2022-11-20T04:48:44;-2.80;99.90
39019;DHT22;24786;51.984;5.872;2022-11-20T04:51:09;-2.80;99.90
39019;DHT22;24786;51.984;5.872;2022-11-20T04:53:35;-2.90;99.90
39019;DHT22;24786;51.984;5.872;2022-11-20T04:56:02;-2.90;99.90
39019;DHT22;24786;51.984;5.872;2022-11-20T04:58:28;-2.90;99.90
39019;DHT22;24786;51.984;5.872;2022-11-20T05:01:11;-2.90;99.90
39019;DHT22;24786;51.984;5.872;2022-11-20T05:03:38;-2.90;99.90
39019;DHT22;24786;51.984;5.872;2022-11-20T05:06:04;-2.90;99.90
39019;DHT22;24786;51.984;5.872;2022-11-20T05:08:30;-2.80;99.90
39019;DHT22;24786;51.984;5.872;2022-11-20T05:11:03;-2.80;99.90
39019;DHT22;24786;51.984;5.872;2022-11-20T05:13:29;-2.80;99.90
39019;DHT22;24786;51.984;5.872;2022-11-20T05:15:55;-2.80;99.90
39019;DHT22;24786;51.984;5.872;2022-11-20T05:18:25;-2.80;99.90
39019;DHT22;24786;51.984;5.872;2022-11-20T05:20:55;-2.80;99.90
39019;DHT22;24786;51.984;5.872;2022-11-20T05:23:21;-2.80;99.90
39019;DHT22;24786;51.984;5.872;2022-11-20T05:25:46;-2.80;99.90
39019;DHT22;24786;51.984;5.872;2022-11-20T05:28:12;-2.90;99.90
39019;DHT22;24786;51.984;5.872;2022-11-20T05:30:37;-2.90;99.90
39019;DHT22;24786;51.984;5.872;2022-11-20T05:33:03;-2.90;99.90
39019;DHT22;24786;51.984;5.872;2022-11-20T05:35:28;-2.90;99.90
39019;DHT22;24786;51.984;5.872;2022-11-20T05:37:54;-2.90;99.90
39019;DHT22;24786;51.984;5.872;2022-11-20T05:40:20;-2.90;99.90
39019;DHT22;24786;51.984;5.872;2022-11-20T05:42:45;-2.90;99.90
39019;DHT22;24786;51.984;5.872;2022-11-20T05:45:11;-2.90;99.90
39019;DHT22;24786;51.984;5.872;2022-11-20T05:47:36;-3.00;99.90
39019;DHT22;24786;51.984;5.872;2022-11-20T05:50:02;-3.00;99.90
39019;DHT22;24786;51.984;5.872;2022-11-20T05:52:29;-3.00;99.90
39019;DHT22;24786;51.984;5.872;2022-11-20T05:54:55;-3.00;99.90
39019;DHT22;24786;51.984;5.872;2022-11-20T05:57:20;-3.00;99.90
39019;DHT22;24786;51.984;5.872;2022-11-20T05:59:46;-2.90;99.90
39019;DHT22;24786;51.984;5.872;2022-11-20T06:02:11;-2.80;99.90
39019;DHT22;24786;51.984;5.872;2022-11-20T06:04:37;-2.80;99.90
39019;DHT22;24786;51.984;5.872;2022-11-20T06:07:04;-2.70;99.90
39019;DHT22;24786;51.984;5.872;2022-11-20T06:09:29;-2.70;99.90
39019;DHT22;24786;51.984;5.872;2022-11-20T06:11:55;-2.70;99.90
39019;DHT22;24786;51.984;5.872;2022-11-20T06:14:21;-2.70;99.90
39019;DHT22;24786;51.984;5.872;2022-11-20T06:16:46;-2.70;99.90
39019;DHT22;24786;51.984;5.872;2022-11-20T06:19:12;-2.70;99.90
39019;DHT22;24786;51.984;5.872;2022-11-20T06:21:37;-2.70;99.90
39019;DHT22;24786;51.984;5.872;2022-11-20T06:24:03;-2.70;99.90
39019;DHT22;24786;51.984;5.872;2022-11-20T06:26:30;-2.70;99.90
39019;DHT22;24786;51.984;5.872;2022-11-20T06:28:55;-2.80;99.90
39019;DHT22;24786;51.984;5.872;2022-11-20T06:31:25;-2.80;99.90
39019;DHT22;24786;51.984;5.872;2022-11-20T06:33:51;-2.80;99.90
39019;DHT22;24786;51.984;5.872;2022-11-20T06:36:19;-2.90;99.90
39019;DHT22;24786;51.984;5.872;2022-11-20T06:38:45;-2.90;99.90
39019;DHT22;24786;51.984;5.872;2022-11-20T06:41:14;-2.90;99.90
39019;DHT22;24786;51.984;5.872;2022-11-20T06:43:40;-2.90;99.90
39019;DHT22;24786;51.984;5.872;2022-11-20T06:46:05;-3.00;99.90
39019;DHT22;24786;51.984;5.872;2022-11-20T06:48:32;-3.00;99.90
39019;DHT22;24786;51.984;5.872;2022-11-20T06:50:58;-3.00;99.90
39019;DHT22;24786;51.984;5.872;2022-11-20T06:53:24;-3.00;99.90
39019;DHT22;24786;51.984;5.872;2022-11-20T06:55:50;-3.00;99.90
39019;DHT22;24786;51.984;5.872;2022-11-20T06:58:17;-3.10;99.90
39019;DHT22;24786;51.984;5.872;2022-11-20T07:00:43;-3.00;99.90
39019;DHT22;24786;51.984;5.872;2022-11-20T07:03:10;-3.00;99.90
39019;DHT22;24786;51.984;5.872;2022-11-20T07:05:36;-3.10;99.90
39019;DHT22;24786;51.984;5.872;2022-11-20T07:08:03;-3.00;99.90
39019;DHT22;24786;51.984;5.872;2022-11-20T07:10:30;-3.00;99.90
39019;DHT22;24786;51.984;5.872;2022-11-20T07:12:55;-3.00;99.90
39019;DHT22;24786;51.984;5.872;2022-11-20T07:15:23;-2.90;99.90
39019;DHT22;24786;51.984;5.872;2022-11-20T07:17:48;-2.90;99.90
39019;DHT22;24786;51.984;5.872;2022-11-20T07:20:15;-3.00;99.90
39019;DHT22;24786;51.984;5.872;2022-11-20T07:22:40;-2.90;99.90
39019;DHT22;24786;51.984;5.872;2022-11-20T07:25:07;-2.90;99.90
39019;DHT22;24786;51.984;5.872;2022-11-20T07:27:32;-2.90;99.90
39019;DHT22;24786;51.984;5.872;2022-11-20T07:29:58;-2.80;99.90
39019;DHT22;24786;51.984;5.872;2022-11-20T07:32:24;-2.80;99.90
39019;DHT22;24786;51.984;5.872;2022-11-20T07:34:50;-2.80;99.90
39019;DHT22;24786;51.984;5.872;2022-11-20T07:37:16;-2.70;99.90
39019;DHT22;24786;51.984;5.872;2022-11-20T07:39:42;-2.70;99.90
39019;DHT22;24786;51.984;5.872;2022-11-20T07:42:08;-2.70;99.90
39019;DHT22;24786;51.984;5.872;2022-11-20T07:44:39;-2.60;99.90
39019;DHT22;24786;51.984;5.872;2022-11-20T07:47:05;-2.60;99.90
39019;DHT22;24786;51.984;5.872;2022-11-20T07:49:30;-2.50;99.90
39019;DHT22;24786;51.984;5.872;2022-11-20T07:51:56;-2.50;99.90
39019;DHT22;24786;51.984;5.872;2022-11-20T07:54:22;-2.40;99.90
39019;DHT22;24786;51.984;5.872;2022-11-20T07:56:48;-2.40;99.90
39019;DHT22;24786;51.984;5.872;2022-11-20T07:59:15;-2.30;99.90
39019;DHT22;24786;51.984;5.872;2022-11-20T08:01:41;-2.20;99.90
39019;DHT22;24786;51.984;5.872;2022-11-20T08:04:08;-2.10;99.90
39019;DHT22;24786;51.984;5.872;2022-11-20T08:06:33;-2.10;99.90
39019;DHT22;24786;51.984;5.872;2022-11-20T08:08:59;-2.10;99.90
39019;DHT22;24786;51.984;5.872;2022-11-20T08:11:24;-2.00;99.90
39019;DHT22;24786;51.984;5.872;2022-11-20T08:14:09;-1.90;99.90
39019;DHT22;24786;51.984;5.872;2022-11-20T08:16:38;-1.80;99.90
39019;DHT22;24786;51.984;5.872;2022-11-20T08:19:03;-1.80;99.90
39019;DHT22;24786;51.984;5.872;2022-11-20T08:21:30;-1.70;99.90
39019;DHT22;24786;51.984;5.872;2022-11-20T08:23:57;-1.70;99.90
39019;DHT22;24786;51.984;5.872;2022-11-20T08:26:23;-1.60;99.90
39019;DHT22;24786;51.984;5.872;2022-11-20T08:28:52;-1.50;99.90
39019;DHT22;24786;51.984;5.872;2022-11-20T08:31:18;-1.50;99.90
39019;DHT22;24786;51.984;5.872;2022-11-20T08:33:47;-1.50;99.90
39019;DHT22;24786;51.984;5.872;2022-11-20T08:36:24;-1.40;99.90
39019;DHT22;24786;51.984;5.872;2022-11-20T08:38:52;-1.30;99.90
39019;DHT22;24786;51.984;5.872;2022-11-20T08:41:18;-1.30;99.90
39019;DHT22;24786;51.984;5.872;2022-11-20T08:43:52;-1.30;99.90
39019;DHT22;24786;51.984;5.872;2022-11-20T08:46:18;-1.20;99.90
39019;DHT22;24786;51.984;5.872;2022-11-20T08:48:44;-1.20;99.90
39019;DHT22;24786;51.984;5.872;2022-11-20T08:51:10;-1.20;99.90
39019;DHT22;24786;51.984;5.872;2022-11-20T08:53:36;-1.10;99.90
39019;DHT22;24786;51.984;5.872;2022-11-20T08:56:04;-1.10;99.90
39019;DHT22;24786;51.984;5.872;2022-11-20T08:58:37;-1.00;99.90
39019;DHT22;24786;51.984;5.872;2022-11-20T09:01:03;-1.00;99.90
39019;DHT22;24786;51.984;5.872;2022-11-20T09:03:28;-0.90;99.90
39019;DHT22;24786;51.984;5.872;2022-11-20T09:06:02;-0.90;99.90
39019;DHT22;24786;51.984;5.872;2022-11-20T09:08:28;-0.90;99.90
39019;DHT22;24786;51.984;5.872;2022-11-20T09:10:56;-0.80;99.90
39019;DHT22;24786;51.984;5.872;2022-11-20T09:13:22;-0.80;99.90
39019;DHT22;24786;51.984;5.872;2022-11-20T09:16:07;-0.70;99.90
39019;DHT22;24786;51.984;5.872;2022-11-20T09:18:34;-0.70;99.90
39019;DHT22;24786;51.984;5.872;2022-11-20T09:21:04;-0.70;99.90
39019;DHT22;24786;51.984;5.872;2022-11-20T09:23:34;-0.60;99.90
39019;DHT22;24786;51.984;5.872;2022-11-20T09:26:13;-0.60;99.90
39019;DHT22;24786;51.984;5.872;2022-11-20T09:28:39;-0.60;99.90
39019;DHT22;24786;51.984;5.872;2022-11-20T09:31:09;-0.50;99.90
39019;DHT22;24786;51.984;5.872;2022-11-20T09:33:37;-0.50;99.90
39019;DHT22;24786;51.984;5.872;2022-11-20T09:36:02;-0.40;99.90
39019;DHT22;24786;51.984;5.872;2022-11-20T09:38:28;-0.40;99.90
39019;DHT22;24786;51.984;5.872;2022-11-20T09:40:57;-0.40;99.90
39019;DHT22;24786;51.984;5.872;2022-11-20T09:52:00;-0.10;99.90
39019;DHT22;24786;51.984;5.872;2022-11-20T09:54:38;-0.10;99.90
39019;DHT22;24786;51.984;5.872;2022-11-20T09:57:26;-0.10;99.90
39019;DHT22;24786;51.984;5.872;2022-11-20T09:59:56;0.00;99.90
39019;DHT22;24786;51.984;5.872;2022-11-20T10:07:52;0.10;99.90
39019;DHT22;24786;51.984;5.872;2022-11-20T10:10:28;0.20;99.90
39019;DHT22;24786;51.984;5.872;2022-11-20T10:31:25;0.60;99.90
39019;DHT22;24786;51.984;5.872;2022-11-20T10:33:54;0.70;99.90
39019;DHT22;24786;51.984;5.872;2022-11-20T10:36:26;0.80;99.90
39019;DHT22;24786;51.984;5.872;2022-11-20T10:39:11;0.80;99.90
39019;DHT22;24786;51.984;5.872;2022-11-20T10:41:41;0.80;99.90
39019;DHT22;24786;51.984;5.872;2022-11-20T10:44:15;0.90;99.90
39019;DHT22;24786;51.984;5.872;2022-11-20T10:47:05;0.90;99.90
39019;DHT22;24786;51.984;5.872;2022-11-20T10:49:35;1.00;99.90
39019;DHT22;24786;51.984;5.872;2022-11-20T10:54:43;1.10;99.90
39019;DHT22;24786;51.984;5.872;2022-11-20T10:57:51;1.00;99.90
39019;DHT22;24786;51.984;5.872;2022-11-20T11:00:18;1.10;99.90
39019;DHT22;24786;51.984;5.872;2022-11-20T11:02:48;1.10;99.90
39019;DHT22;24786;51.984;5.872;2022-11-20T11:05:41;1.10;99.90
39019;DHT22;24786;51.984;5.872;2022-11-20T11:08:13;1.10;99.90
39019;DHT22;24786;51.984;5.872;2022-11-20T11:10:57;1.10;99.90
39019;DHT22;24786;51.984;5.872;2022-11-20T11:13:27;1.20;99.90
39019;DHT22;24786;51.984;5.872;2022-11-20T11:15:53;1.30;99.90
39019;DHT22;24786;51.984;5.872;2022-11-20T11:18:32;1.40;99.90
39019;DHT22;24786;51.984;5.872;2022-11-20T11:21:04;1.40;99.90
39019;DHT22;24786;51.984;5.872;2022-11-20T11:23:39;1.50;99.90
39019;DHT22;24786;51.984;5.872;2022-11-20T11:26:07;1.50;99.90
39019;DHT22;24786;51.984;5.872;2022-11-20T11:31:33;1.70;99.90
39019;DHT22;24786;51.984;5.872;2022-11-20T11:34:15;1.80;99.90
39019;DHT22;24786;51.984;5.872;2022-11-20T11:36:57;1.80;99.90
39019;DHT22;24786;51.984;5.872;2022-11-20T11:39:24;2.00;99.90
39019;DHT22;24786;51.984;5.872;2022-11-20T11:41:50;2.00;99.90
39019;DHT22;24786;51.984;5.872;2022-11-20T11:44:28;2.00;99.90
39019;DHT22;24786;51.984;5.872;2022-11-20T11:55:33;2.10;99.90
39019;DHT22;24786;51.984;5.872;2022-11-20T12:01:28;2.20;99.90
39019;DHT22;24786;51.984;5.872;2022-11-20T12:04:04;2.20;99.90
39019;DHT22;24786;51.984;5.872;2022-11-20T12:07:03;2.10;99.90
39019;DHT22;24786;51.984;5.872;2022-11-20T12:09:48;2.10;99.90
39019;DHT22;24786;51.984;5.872;2022-11-20T12:12:31;2.20;99.90
39019;DHT22;24786;51.984;5.872;2022-11-20T12:14:58;2.20;99.90
39019;DHT22;24786;51.984;5.872;2022-11-20T12:17:24;2.10;99.90
39019;DHT22;24786;51.984;5.872;2022-11-20T12:20:01;2.20;99.90
39019;DHT22;24786;51.984;5.872;2022-11-20T12:22:40;2.10;99.90
39019;DHT22;24786;51.984;5.872;2022-11-20T12:27:55;2.20;99.90
39019;DHT22;24786;51.984;5.872;2022-11-20T12:30:21;2.20;99.90
39019;DHT22;24786;51.984;5.872;2022-11-20T12:32:55;2.20;99.90
39019;DHT22;24786;51.984;5.872;2022-11-20T12:35:48;2.20;99.90
39019;DHT22;24786;51.984;5.872;2022-11-20T12:47:24;2.40;99.90
39019;DHT22;24786;51.984;5.872;2022-11-20T12:49:56;2.30;99.90
39019;DHT22;24786;51.984;5.872;2022-11-20T12:52:48;2.40;99.90
39019;DHT22;24786;51.984;5.872;2022-11-20T12:58:25;2.50;99.90
39019;DHT22;24786;51.984;5.872;2022-11-20T13:01:02;2.50;99.90
39019;DHT22;24786;51.984;5.872;2022-11-20T13:03:39;2.50;99.90
39019;DHT22;24786;51.984;5.872;2022-11-20T13:08:39;2.50;99.90
39019;DHT22;24786;51.984;5.872;2022-11-20T13:11:25;2.50;99.90
39019;DHT22;24786;51.984;5.872;2022-11-20T13:14:03;2.40;99.90
39019;DHT22;24786;51.984;5.872;2022-11-20T13:16:37;2.40;99.90
39019;DHT22;24786;51.984;5.872;2022-11-20T13:19:08;2.40;99.90
39019;DHT22;24786;51.984;5.872;2022-11-20T13:21:40;2.30;99.90
39019;DHT22;24786;51.984;5.872;2022-11-20T13:30:02;2.40;99.90
39019;DHT22;24786;51.984;5.872;2022-11-20T13:32:26;2.40;99.90
39019;DHT22;24786;51.984;5.872;2022-11-20T13:35:00;2.40;99.90
39019;DHT22;24786;51.984;5.872;2022-11-20T13:37:33;2.50;99.90
39019;DHT22;24786;51.984;5.872;2022-11-20T13:42:45;2.50;99.90
39019;DHT22;24786;51.984;5.872;2022-11-20T13:45:25;2.50;99.90
39019;DHT22;24786;51.984;5.872;2022-11-20T13:47:52;2.50;99.90
39019;DHT22;24786;51.984;5.872;2022-11-20T13:50:18;2.50;99.90
39019;DHT22;24786;51.984;5.872;2022-11-20T13:55:56;2.60;99.90
39019;DHT22;24786;51.984;5.872;2022-11-20T14:01:16;2.60;99.90
39019;DHT22;24786;51.984;5.872;2022-11-20T14:03:43;2.60;99.90
39019;DHT22;24786;51.984;5.872;2022-11-20T14:06:26;2.60;99.90
39019;DHT22;24786;51.984;5.872;2022-11-20T14:08:53;2.60;99.90
39019;DHT22;24786;51.984;5.872;2022-11-20T14:11:21;2.60;99.90
39019;DHT22;24786;51.984;5.872;2022-11-20T14:13:57;2.60;99.90
39019;DHT22;24786;51.984;5.872;2022-11-20T14:16:25;2.60;99.90
39019;DHT22;24786;51.984;5.872;2022-11-20T14:18:51;2.60;99.90
39019;DHT22;24786;51.984;5.872;2022-11-20T14:21:25;2.60;99.90
39019;DHT22;24786;51.984;5.872;2022-11-20T14:24:06;2.60;99.90
39019;DHT22;24786;51.984;5.872;2022-11-20T14:26:32;2.60;99.90
39019;DHT22;24786;51.984;5.872;2022-11-20T14:28:58;2.60;99.90
39019;DHT22;24786;51.984;5.872;2022-11-20T14:31:26;2.60;99.90
39019;DHT22;24786;51.984;5.872;2022-11-20T14:33:53;2.60;99.90
39019;DHT22;24786;51.984;5.872;2022-11-20T14:36:24;2.60;99.90
39019;DHT22;24786;51.984;5.872;2022-11-20T14:38:51;2.60;99.90
39019;DHT22;24786;51.984;5.872;2022-11-20T14:41:22;2.60;99.90
39019;DHT22;24786;51.984;5.872;2022-11-20T14:43:56;2.60;99.90
39019;DHT22;24786;51.984;5.872;2022-11-20T14:46:22;2.60;99.90
39019;DHT22;24786;51.984;5.872;2022-11-20T14:49:01;2.70;99.90
39019;DHT22;24786;51.984;5.872;2022-11-20T14:51:36;2.70;99.90
39019;DHT22;24786;51.984;5.872;2022-11-20T14:54:17;2.70;99.90
39019;DHT22;24786;51.984;5.872;2022-11-20T14:56:57;2.70;99.90
39019;DHT22;24786;51.984;5.872;2022-11-20T14:59:35;2.70;99.90
39019;DHT22;24786;51.984;5.872;2022-11-20T15:02:07;2.70;99.90
39019;DHT22;24786;51.984;5.872;2022-11-20T15:04:47;2.70;99.90
39019;DHT22;24786;51.984;5.872;2022-11-20T15:07:24;2.70;99.90
39019;DHT22;24786;51.984;5.872;2022-11-20T15:10:19;2.70;99.90
39019;DHT22;24786;51.984;5.872;2022-11-20T15:12:57;2.80;99.90
39019;DHT22;24786;51.984;5.872;2022-11-20T15:18:15;2.80;99.90
39019;DHT22;24786;51.984;5.872;2022-11-20T15:20:42;2.80;99.90
39019;DHT22;24786;51.984;5.872;2022-11-20T15:23:13;2.80;99.90
39019;DHT22;24786;51.984;5.872;2022-11-20T15:25:42;2.80;99.90
39019;DHT22;24786;51.984;5.872;2022-11-20T15:28:21;2.80;99.90
39019;DHT22;24786;51.984;5.872;2022-11-20T15:30:48;2.80;99.90
39019;DHT22;24786;51.984;5.872;2022-11-20T15:33:15;2.80;99.90
39019;DHT22;24786;51.984;5.872;2022-11-20T15:35:41;2.90;99.90
39019;DHT22;24786;51.984;5.872;2022-11-20T15:38:07;2.90;99.90
39019;DHT22;24786;51.984;5.872;2022-11-20T15:40:33;2.90;99.90
39019;DHT22;24786;51.984;5.872;2022-11-20T15:42:58;2.90;99.90
39019;DHT22;24786;51.984;5.872;2022-11-20T15:45:43;2.90;99.90
39019;DHT22;24786;51.984;5.872;2022-11-20T15:48:18;2.90;99.90
39019;DHT22;24786;51.984;5.872;2022-11-20T15:51:02;2.90;99.90
39019;DHT22;24786;51.984;5.872;2022-11-20T15:53:28;2.90;99.90
39019;DHT22;24786;51.984;5.872;2022-11-20T15:55:54;3.00;99.90
39019;DHT22;24786;51.984;5.872;2022-11-20T15:58:20;2.90;99.90
39019;DHT22;24786;51.984;5.872;2022-11-20T16:00:50;3.00;99.90
39019;DHT22;24786;51.984;5.872;2022-11-20T16:03:17;2.90;99.90
39019;DHT22;24786;51.984;5.872;2022-11-20T16:05:43;3.00;99.90
39019;DHT22;24786;51.984;5.872;2022-11-20T16:08:09;3.00;99.90
39019;DHT22;24786;51.984;5.872;2022-11-20T16:10:35;3.00;99.90
39019;DHT22;24786;51.984;5.872;2022-11-20T16:13:01;3.00;99.90
39019;DHT22;24786;51.984;5.872;2022-11-20T16:15:51;3.00;99.90
39019;DHT22;24786;51.984;5.872;2022-11-20T16:18:19;3.00;99.90
39019;DHT22;24786;51.984;5.872;2022-11-20T16:20:48;3.10;99.90
39019;DHT22;24786;51.984;5.872;2022-11-20T16:23:14;3.10;99.90
39019;DHT22;24786;51.984;5.872;2022-11-20T16:25:41;3.10;99.90
39019;DHT22;24786;51.984;5.872;2022-11-20T16:28:07;3.10;99.90
39019;DHT22;24786;51.984;5.872;2022-11-20T16:30:33;3.10;99.90
39019;DHT22;24786;51.984;5.872;2022-11-20T16:33:03;3.10;99.90
39019;DHT22;24786;51.984;5.872;2022-11-20T16:35:30;3.10;99.90
39019;DHT22;24786;51.984;5.872;2022-11-20T16:37:58;3.00;99.90
39019;DHT22;24786;51.984;5.872;2022-11-20T16:40:24;3.10;99.90
39019;DHT22;24786;51.984;5.872;2022-11-20T16:42:50;3.20;99.90
39019;DHT22;24786;51.984;5.872;2022-11-20T16:45:16;3.10;99.90
39019;DHT22;24786;51.984;5.872;2022-11-20T16:47:48;3.10;99.90
39019;DHT22;24786;51.984;5.872;2022-11-20T16:50:14;3.10;99.90
39019;DHT22;24786;51.984;5.872;2022-11-20T16:52:40;3.10;99.90
39019;DHT22;24786;51.984;5.872;2022-11-20T16:55:05;3.10;99.90
39019;DHT22;24786;51.984;5.872;2022-11-20T16:57:31;3.10;99.90
39019;DHT22;24786;51.984;5.872;2022-11-20T16:59:58;3.10;99.90
39019;DHT22;24786;51.984;5.872;2022-11-20T17:02:24;3.10;99.90
39019;DHT22;24786;51.984;5.872;2022-11-20T17:04:51;3.10;99.90
39019;DHT22;24786;51.984;5.872;2022-11-20T17:07:16;3.10;99.90
39019;DHT22;24786;51.984;5.872;2022-11-20T17:09:42;3.10;99.90
39019;DHT22;24786;51.984;5.872;2022-11-20T17:12:08;3.10;99.90
39019;DHT22;24786;51.984;5.872;2022-11-20T17:14:33;3.10;99.90